createdAt,value
2023-05-04T00:01:48.879Z,101280.75
2023-05-04T00:04:37.587Z,101278.28
2023-05-04T00:07:27.553Z,101268.44
2023-05-04T00:10:16.288Z,101274.59
2023-05-04T00:13:05.552Z,101264.75
2023-05-04T00:15:54.249Z,101275.41
2023-05-04T00:18:42.953Z,101273.28
2023-05-04T00:21:32.868Z,101267.50
2023-05-04T00:24:22.863Z,101269.44
2023-05-04T00:27:12.966Z,101262.16
2023-05-04T00:30:01.641Z,101262.16
2023-05-04T00:32:50.439Z,101266.13
2023-05-04T00:35:39.035Z,101252.78
2023-05-04T00:38:27.756Z,101250.09
2023-05-04T00:41:18.134Z,101254.78
2023-05-04T00:44:07.879Z,101254.16
2023-05-04T00:46:56.984Z,101253.97
2023-05-04T00:49:46.152Z,101253.41
2023-05-04T00:52:36.223Z,101251.47
2023-05-04T00:55:27.303Z,101247.44
2023-05-04T00:58:18.250Z,101257.47
2023-05-04T01:01:06.981Z,101250.81
2023-05-04T01:03:57.134Z,101243.34
2023-05-04T01:06:50.276Z,101251.47
2023-05-04T01:09:44.636Z,101253.66
2023-05-04T01:12:39.976Z,101238.50
2023-05-04T01:15:31.806Z,101243.47
2023-05-04T01:18:20.503Z,101240.16
2023-05-04T01:21:09.967Z,101242.16
2023-05-04T01:24:00.579Z,101234.81
2023-05-04T01:26:55.428Z,101236.81
2023-05-04T01:29:52.375Z,101238.00
2023-05-04T01:32:43.144Z,101238.53
2023-05-04T01:35:33.323Z,101233.84
2023-05-04T01:38:22.129Z,101245.38
2023-05-04T01:41:12.084Z,101240.84
2023-05-04T01:44:00.966Z,101247.03
2023-05-04T01:46:52.100Z,101248.19
2023-05-04T01:49:40.771Z,101252.53
2023-05-04T01:52:30.736Z,101246.38
2023-05-04T01:55:19.449Z,101243.69
2023-05-04T01:58:09.523Z,101256.41
2023-05-04T02:01:00.640Z,101251.22
2023-05-04T02:03:49.636Z,101252.88
2023-05-04T02:06:38.301Z,101251.88
2023-05-04T02:09:27.004Z,101244.88
2023-05-04T02:12:15.578Z,101249.84
2023-05-04T02:15:06.318Z,101253.25
2023-05-04T02:17:58.526Z,101247.38
2023-05-04T02:20:47.154Z,101247.56
2023-05-04T02:23:35.744Z,101247.56
2023-05-04T02:26:24.362Z,101251.06
2023-05-04T02:29:12.905Z,101251.22
2023-05-04T02:32:03.266Z,101250.56
2023-05-04T02:34:52.115Z,101253.91
2023-05-04T02:37:41.083Z,101252.25
2023-05-04T02:40:29.692Z,101243.91
2023-05-04T02:43:18.350Z,101254.94
2023-05-04T02:46:07.027Z,101251.63
2023-05-04T02:48:57.521Z,101255.94
2023-05-04T02:51:47.368Z,101251.63
2023-05-04T02:54:35.958Z,101254.28
2023-05-04T02:57:24.563Z,101253.28
2023-05-04T03:00:14.013Z,101257.78
2023-05-04T03:03:02.776Z,101246.28
2023-05-04T03:05:52.909Z,101257.97
2023-05-04T03:08:41.812Z,101257.97
2023-05-04T03:11:30.388Z,101255.31
2023-05-04T03:14:18.980Z,101253.63
2023-05-04T03:17:07.923Z,101253.63
2023-05-04T03:19:56.762Z,101247.66
2023-05-04T03:22:46.720Z,101252.31
2023-05-04T03:25:35.274Z,101251.13
2023-05-04T03:28:23.830Z,101253.63
2023-05-04T03:31:12.497Z,101251.13
2023-05-04T03:34:01.184Z,101244.97
2023-05-04T03:36:49.934Z,101243.97
2023-05-04T03:39:39.992Z,101253.63
2023-05-04T03:42:28.639Z,101243.47
2023-05-04T03:45:17.368Z,101239.97
2023-05-04T03:48:06.015Z,101241.94
2023-05-04T03:50:54.901Z,101238.63
2023-05-04T03:53:44.855Z,101241.63
2023-05-04T03:56:35.269Z,101247.66
2023-05-04T03:59:23.823Z,101249.31
2023-05-04T04:02:12.538Z,101243.97
2023-05-04T04:05:01.080Z,101246.28
2023-05-04T04:07:50.845Z,101252.78
2023-05-04T04:10:39.389Z,101249.97
2023-05-04T04:13:29.368Z,101244.78
2023-05-04T04:16:18.037Z,101239.28
2023-05-04T04:19:07.539Z,101239.25
2023-05-04T04:21:58.149Z,101241.91
2023-05-04T04:24:46.814Z,101239.19
2023-05-04T04:27:36.444Z,101250.56
2023-05-04T04:30:26.558Z,101242.59
2023-05-04T04:33:15.128Z,101250.91
2023-05-04T04:36:06.730Z,101251.75
2023-05-04T04:38:58.402Z,101249.59
2023-05-04T04:41:47.080Z,101251.97
2023-05-04T04:44:39.715Z,101253.63
2023-05-04T04:47:32.858Z,101247.97
2023-05-04T04:50:22.674Z,101235.34
2023-05-04T04:53:12.506Z,101238.66
2023-05-04T04:56:01.129Z,101250.50
2023-05-04T04:58:50.854Z,101253.38
2023-05-04T05:01:39.476Z,101252.66
2023-05-04T05:04:29.741Z,101255.03
2023-05-04T05:07:18.356Z,101254.53
2023-05-04T05:10:08.558Z,101252.16
2023-05-04T05:12:57.413Z,101251.97
2023-05-04T05:15:46.137Z,101251.13
2023-05-04T05:18:35.349Z,101253.19
2023-05-04T05:21:27.648Z,101254.97
2023-05-04T05:24:17.171Z,101245.00
2023-05-04T05:27:05.783Z,101240.28
2023-05-04T05:29:54.444Z,101244.25
2023-05-04T05:32:43.969Z,101240.94
2023-05-04T05:35:33.934Z,101235.97
2023-05-04T05:38:23.948Z,101243.78
2023-05-04T05:41:12.659Z,101240.09
2023-05-04T05:44:02.813Z,101240.09
2023-05-04T05:46:51.997Z,101242.25
2023-05-04T05:49:41.518Z,101249.72
2023-05-04T05:52:30.760Z,101246.78
2023-05-04T05:55:20.756Z,101240.22
2023-05-04T05:58:09.640Z,101248.91
2023-05-04T06:01:04.955Z,101247.41
2023-05-04T06:03:53.800Z,101246.28
2023-05-04T06:06:45.134Z,101244.75
2023-05-04T06:09:35.040Z,101239.91
2023-05-04T06:12:27.395Z,101245.56
2023-05-04T06:15:16.646Z,101232.06
2023-05-04T06:18:05.482Z,101227.88
2023-05-04T06:21:00.305Z,101229.22
2023-05-04T06:23:48.981Z,101219.06
2023-05-04T06:26:37.613Z,101225.22
2023-05-04T06:29:27.738Z,101218.06
2023-05-04T06:32:16.744Z,101218.84
2023-05-04T06:35:05.816Z,101218.53
2023-05-04T06:37:54.412Z,101219.72
2023-05-04T06:40:43.080Z,101211.59
2023-05-04T06:43:33.786Z,101217.94
2023-05-04T06:46:23.856Z,101212.59
2023-05-04T06:49:12.443Z,101219.59
2023-05-04T06:52:01.312Z,101218.28
2023-05-04T06:54:49.926Z,101210.94
2023-05-04T06:57:38.786Z,101210.56
2023-05-04T07:00:28.231Z,101210.41
2023-05-04T07:03:18.258Z,101205.25
2023-05-04T07:06:07.075Z,101213.72
2023-05-04T07:08:55.713Z,101199.22
2023-05-04T07:11:45.554Z,101202.84
2023-05-04T07:14:34.249Z,101200.88
2023-05-04T07:17:25.248Z,101198.84
2023-05-04T07:20:17.177Z,101195.81
2023-05-04T07:23:05.973Z,101186.16
2023-05-04T07:25:54.607Z,101185.78
2023-05-04T07:28:44.298Z,101180.09
2023-05-04T07:31:33.616Z,101184.91
2023-05-04T07:34:27.673Z,101178.09
2023-05-04T07:37:28.094Z,101181.03
2023-05-04T07:40:16.714Z,101174.16
2023-05-04T07:43:05.719Z,101162.63
2023-05-04T07:45:55.235Z,101167.69
2023-05-04T07:48:43.923Z,101166.00
2023-05-04T07:51:32.526Z,101163.66
2023-05-04T07:54:23.311Z,101162.63
2023-05-04T07:57:12.073Z,101163.84
2023-05-04T08:00:00.700Z,101159.97
2023-05-04T08:02:49.741Z,101162.00
2023-05-04T08:05:38.560Z,101155.78
2023-05-04T08:08:27.718Z,101154.22
2023-05-04T08:11:20.583Z,101151.13
2023-05-04T08:14:10.627Z,101150.69
2023-05-04T08:16:59.221Z,101163.47
2023-05-04T08:19:47.871Z,101151.97
2023-05-04T08:22:36.785Z,101144.97
2023-05-04T08:25:25.587Z,101153.47
2023-05-04T08:28:15.641Z,101144.72
2023-05-04T08:31:04.352Z,101143.25
2023-05-04T08:33:53.131Z,101143.31
2023-05-04T08:36:41.695Z,101130.63
2023-05-04T08:39:30.555Z,101129.25
2023-05-04T08:42:28.919Z,101139.00
2023-05-04T08:45:19.394Z,101132.00
2023-05-04T08:48:08.419Z,101127.22
2023-05-04T08:50:59.097Z,101130.81
2023-05-04T08:53:48.570Z,101111.84
2023-05-04T08:56:38.187Z,101123.34
2023-05-04T08:59:30.345Z,101129.88
2023-05-04T09:02:21.487Z,101127.88
2023-05-04T09:05:12.184Z,101147.09
2023-05-04T09:08:00.891Z,101131.06
2023-05-04T09:10:49.793Z,101122.06
2023-05-04T09:13:38.736Z,101135.69
2023-05-04T09:16:36.089Z,101125.00
2023-05-04T09:19:33.494Z,101128.13
2023-05-04T09:22:22.309Z,101112.28
2023-05-04T09:25:12.636Z,101115.72
2023-05-04T09:28:01.683Z,101113.50
2023-05-04T09:30:51.660Z,101115.16
2023-05-04T09:33:40.298Z,101124.47
2023-05-04T09:36:30.327Z,101120.59
2023-05-04T09:39:19.201Z,101115.63
2023-05-04T09:42:18.826Z,101111.94
2023-05-04T09:45:09.782Z,101107.50
2023-05-04T09:47:58.847Z,101110.81
2023-05-04T09:50:53.622Z,101116.06
2023-05-04T09:53:44.849Z,101109.16
2023-05-04T09:56:39.883Z,101096.00
2023-05-04T09:59:32.340Z,101094.50
2023-05-04T10:02:23.370Z,101086.41
2023-05-04T10:05:18.410Z,101087.22
2023-05-04T10:08:07.673Z,101088.53
2023-05-04T10:10:58.980Z,101077.84
2023-05-04T10:13:47.823Z,101079.50
2023-05-04T10:16:47.046Z,101066.41
2023-05-04T10:19:54.377Z,101068.06
2023-05-04T10:22:57.634Z,101071.19
2023-05-04T10:26:02.525Z,101066.06
2023-05-04T10:29:05.023Z,101060.72
2023-05-04T10:31:54.352Z,101062.28
2023-05-04T10:34:43.194Z,101051.22
2023-05-04T10:37:31.870Z,101045.66
2023-05-04T10:40:20.485Z,101042.66
2023-05-04T10:43:13.289Z,101032.97
2023-05-04T10:46:03.293Z,101034.63
2023-05-04T10:48:54.291Z,101020.72
2023-05-04T10:51:49.341Z,101021.28
2023-05-04T10:54:41.712Z,101020.63
2023-05-04T10:57:31.167Z,101016.75
2023-05-04T11:00:20.597Z,101024.56
2023-05-04T11:03:12.115Z,101011.69
2023-05-04T11:06:00.824Z,101008.16
2023-05-04T11:08:50.374Z,101005.31
2023-05-04T11:11:39.150Z,100993.78
2023-05-04T11:14:29.804Z,100999.75
2023-05-04T11:20:12.279Z,101002.91
2023-05-04T11:23:01.133Z,100976.38
2023-05-04T11:25:50.869Z,100974.91
2023-05-04T11:28:40.212Z,100970.38
2023-05-04T11:31:28.854Z,100967.50
2023-05-04T11:34:22.685Z,100964.66
2023-05-04T11:37:14.177Z,100959.97
2023-05-04T11:40:02.878Z,100961.78
2023-05-04T11:42:55.422Z,100959.50
2023-05-04T11:45:49.312Z,100955.97
2023-05-04T11:48:38.088Z,100955.63
2023-05-04T11:51:27.699Z,100951.09
2023-05-04T11:54:23.818Z,100951.41
2023-05-04T11:57:23.453Z,100948.25
2023-05-04T12:00:14.148Z,100944.94
2023-05-04T12:03:03.185Z,100942.63
2023-05-04T12:05:53.918Z,100940.41
2023-05-04T12:08:45.414Z,100934.25
2023-05-04T12:11:38.624Z,100936.09
2023-05-04T12:14:28.397Z,100930.16
2023-05-04T12:17:18.094Z,100919.47
2023-05-04T12:20:07.964Z,100926.50
2023-05-04T12:22:58.404Z,100926.88
2023-05-04T12:25:57.442Z,100931.13
2023-05-04T12:28:47.923Z,100918.78
2023-05-04T12:31:36.678Z,100906.78
2023-05-04T12:34:25.337Z,100907.06
2023-05-04T12:37:13.971Z,100915.06
2023-05-04T12:40:04.400Z,100907.63
2023-05-04T12:42:55.951Z,100909.34
2023-05-04T12:45:46.032Z,100902.06
2023-05-04T12:48:34.733Z,100897.38
2023-05-04T12:51:23.397Z,100889.38
2023-05-04T12:54:13.393Z,100888.69
2023-05-04T12:57:02.409Z,100891.25
2023-05-04T12:59:50.986Z,100883.41
2023-05-04T13:02:41.070Z,100889.22
2023-05-04T13:05:29.798Z,100882.22
2023-05-04T13:08:19.845Z,100878.53
2023-05-04T13:11:08.741Z,100878.53
2023-05-04T13:13:57.935Z,100871.13
2023-05-04T13:16:46.680Z,100862.88
2023-05-04T13:19:36.784Z,100869.75
2023-05-04T13:22:25.460Z,100875.72
2023-05-04T13:25:14.493Z,100861.34
2023-05-04T13:28:03.433Z,100857.25
2023-05-04T13:30:53.954Z,100866.28
2023-05-04T13:33:42.868Z,100859.78
2023-05-04T13:36:33.008Z,100850.13
2023-05-04T13:39:23.818Z,100845.28
2023-05-04T13:42:13.279Z,100849.53
2023-05-04T13:45:02.515Z,100848.25
2023-05-04T13:47:53.012Z,100844.66
2023-05-04T13:50:42.103Z,100838.41
2023-05-04T13:53:34.323Z,100827.31
2023-05-04T13:56:23.301Z,100817.00
2023-05-04T13:59:12.071Z,100812.69
2023-05-04T14:02:03.956Z,100808.75
2023-05-04T14:04:53.146Z,100811.66
2023-05-04T14:07:41.832Z,100809.22
2023-05-04T14:10:31.884Z,100799.81
2023-05-04T14:13:20.578Z,100793.91
2023-05-04T14:16:09.470Z,100799.41
2023-05-04T14:18:58.132Z,100795.06
2023-05-04T14:21:46.865Z,100795.31
2023-05-04T14:24:35.826Z,100791.53
2023-05-04T14:27:27.300Z,100783.13
2023-05-04T14:30:16.722Z,100779.97
2023-05-04T14:33:05.758Z,100772.56
2023-05-04T14:35:54.388Z,100767.41
2023-05-04T14:38:43.398Z,100773.81
2023-05-04T14:41:33.676Z,100765.56
2023-05-04T14:44:25.928Z,100762.91
2023-05-04T14:47:14.527Z,100757.69
2023-05-04T14:50:03.470Z,100758.09
2023-05-04T14:52:52.441Z,100754.84
2023-05-04T14:55:41.968Z,100752.44
2023-05-04T14:58:30.792Z,100748.34
2023-05-04T15:01:20.819Z,100734.31
2023-05-04T15:04:09.515Z,100735.13
2023-05-04T15:06:58.240Z,100739.47
2023-05-04T15:09:46.885Z,100733.47
2023-05-04T15:12:37.570Z,100735.22
2023-05-04T15:15:26.497Z,100728.63
2023-05-04T15:18:16.475Z,100729.78
2023-05-04T15:21:05.150Z,100725.47
2023-05-04T15:23:53.797Z,100726.66
2023-05-04T15:26:42.427Z,100727.72
2023-05-04T15:29:31.193Z,100716.41
2023-05-04T15:32:19.911Z,100713.75
2023-05-04T15:35:10.433Z,100709.19
2023-05-04T15:37:59.050Z,100699.34
2023-05-04T15:40:47.659Z,100706.75
2023-05-04T15:43:36.346Z,100701.44
2023-05-04T15:46:25.259Z,100696.50
2023-05-04T15:49:14.018Z,100701.47
2023-05-04T15:52:09.921Z,100703.13
2023-05-04T15:55:09.240Z,100691.31
2023-05-04T15:58:05.994Z,100688.03
2023-05-04T16:00:54.687Z,100687.44
2023-05-04T16:03:44.562Z,100680.22
2023-05-04T16:06:33.187Z,100679.53
2023-05-04T16:09:23.274Z,100683.00
2023-05-04T16:12:12.107Z,100681.22
2023-05-04T16:15:00.731Z,100675.38
2023-05-04T16:17:49.445Z,100670.69
2023-05-04T16:20:38.145Z,100672.53
2023-05-04T16:23:29.052Z,100671.66
2023-05-04T16:26:19.064Z,100669.78
2023-05-04T16:29:08.005Z,100670.22
2023-05-04T16:31:56.964Z,100668.75
2023-05-04T16:34:45.643Z,100666.69
2023-05-04T16:37:37.146Z,100668.78
2023-05-04T16:40:26.464Z,100667.19
2023-05-04T16:43:16.485Z,100659.31
2023-05-04T16:46:07.599Z,100664.66
2023-05-04T16:48:56.300Z,100674.00
2023-05-04T16:51:45.027Z,100657.91
2023-05-04T16:54:34.189Z,100663.84
2023-05-04T16:57:22.843Z,100658.06
2023-05-04T17:00:14.621Z,100665.47
2023-05-04T17:03:03.529Z,100656.41
2023-05-04T17:05:55.622Z,100656.84
2023-05-04T17:08:45.608Z,100651.06
2023-05-04T17:11:34.474Z,100660.88
2023-05-04T17:14:23.426Z,100662.25
2023-05-04T17:17:13.355Z,100666.78
2023-05-04T17:20:02.435Z,100664.75
2023-05-04T17:22:53.694Z,100659.06
2023-05-04T17:25:42.601Z,100658.22
2023-05-04T17:28:31.605Z,100657.78
2023-05-04T17:31:20.346Z,100654.53
2023-05-04T17:34:11.350Z,100660.66
2023-05-04T17:37:00.059Z,100656.91
2023-05-04T17:39:48.665Z,100661.22
2023-05-04T17:42:37.232Z,100658.75
2023-05-04T17:45:26.810Z,100665.00
2023-05-04T17:48:17.414Z,100668.97
2023-05-04T17:51:10.981Z,100673.50
2023-05-04T17:53:59.703Z,100670.00
2023-05-04T17:56:48.297Z,100675.69
2023-05-04T17:59:41.172Z,100675.25
2023-05-04T18:02:31.094Z,100678.28
2023-05-04T18:05:20.047Z,100680.28
2023-05-04T18:08:10.459Z,100682.34
2023-05-04T18:10:59.100Z,100694.47
2023-05-04T18:13:50.887Z,100697.22
2023-05-04T18:16:39.970Z,100695.41
2023-05-04T18:19:28.631Z,100697.84
2023-05-04T18:22:19.220Z,100696.03
2023-05-04T18:25:10.676Z,100691.94
2023-05-04T18:28:02.467Z,100688.25
2023-05-04T18:30:51.540Z,100684.72
2023-05-04T18:33:40.200Z,100674.84
2023-05-04T18:36:28.962Z,100674.81
2023-05-04T18:39:17.627Z,100675.06
2023-05-04T18:42:07.676Z,100679.34
2023-05-04T18:44:56.673Z,100669.78
2023-05-04T18:47:45.391Z,100686.41
2023-05-04T18:50:34.023Z,100684.75
2023-05-04T18:53:22.794Z,100673.00
2023-05-04T18:56:12.179Z,100678.66
2023-05-04T18:59:02.223Z,100688.88
2023-05-04T19:02:03.174Z,100694.50
2023-05-04T19:04:52.170Z,100691.44
2023-05-04T19:07:41.034Z,100697.03
2023-05-04T19:10:30.623Z,100688.75
2023-05-04T19:13:20.763Z,100705.00
2023-05-04T19:16:14.556Z,100699.66
2023-05-04T19:19:04.109Z,100697.13
2023-05-04T19:21:53.292Z,100706.56
2023-05-04T19:24:41.902Z,100709.06
2023-05-04T19:27:30.736Z,100708.31
2023-05-04T19:30:19.526Z,100711.38
2023-05-04T19:33:09.907Z,100713.25
2023-05-04T19:35:59.069Z,100703.19
2023-05-04T19:38:48.076Z,100703.81
2023-05-04T19:41:37.360Z,100702.78
2023-05-04T19:44:25.952Z,100702.13
2023-05-04T19:47:14.527Z,100698.06
2023-05-04T19:50:04.785Z,100699.25
2023-05-04T19:52:53.595Z,100688.31
2023-05-04T19:55:42.333Z,100694.31
2023-05-04T19:58:32.250Z,100685.41
2023-05-04T20:01:21.144Z,100694.28
2023-05-04T20:04:10.300Z,100680.50
2023-05-04T20:07:02.492Z,100676.78
2023-05-04T20:09:51.361Z,100680.69
2023-05-04T20:12:40.869Z,100674.94
2023-05-04T20:15:29.683Z,100679.09
2023-05-04T20:18:20.057Z,100679.94
2023-05-04T20:21:08.864Z,100681.75
2023-05-04T20:23:59.139Z,100677.63
2023-05-04T20:26:47.886Z,100679.31
2023-05-04T20:29:36.518Z,100680.66
2023-05-04T20:32:25.339Z,100683.03
2023-05-04T20:35:14.350Z,100690.91
2023-05-04T20:38:10.557Z,100686.78
2023-05-04T20:41:07.278Z,100682.00
2023-05-04T20:43:55.991Z,100683.78
2023-05-04T20:46:46.041Z,100687.81
2023-05-04T20:49:34.746Z,100683.69
2023-05-04T20:52:23.395Z,100686.13
2023-05-04T20:55:13.759Z,100690.19
2023-05-04T20:58:03.849Z,100685.06
2023-05-04T21:00:52.755Z,100685.25
2023-05-04T21:03:41.588Z,100683.81
2023-05-04T21:06:32.273Z,100690.56
2023-05-04T21:09:21.484Z,100695.13
2023-05-04T21:12:10.146Z,100691.59
2023-05-04T21:15:00.293Z,100687.28
2023-05-04T21:17:49.901Z,100695.28
2023-05-04T21:20:38.694Z,100690.34
2023-05-04T21:23:27.284Z,100685.63
2023-05-04T21:26:15.913Z,100686.84
2023-05-04T21:29:04.529Z,100683.97
2023-05-04T21:31:54.565Z,100679.44
2023-05-04T21:34:43.181Z,100678.19
2023-05-04T21:37:31.819Z,100679.44
2023-05-04T21:40:20.745Z,100670.81
2023-05-04T21:43:09.324Z,100669.16
2023-05-04T21:45:58.909Z,100673.88
2023-05-04T21:48:48.914Z,100668.53
2023-05-04T21:51:37.735Z,100668.72
2023-05-04T21:54:27.915Z,100673.41
2023-05-04T21:57:16.634Z,100664.38
2023-05-04T22:00:12.914Z,100668.72
2023-05-04T22:03:01.838Z,100662.13
2023-05-04T22:05:57.725Z,100674.44
2023-05-04T22:08:46.648Z,100666.59
2023-05-04T22:11:35.340Z,100663.31
2023-05-04T22:14:24.232Z,100676.47
2023-05-04T22:17:13.107Z,100673.19
2023-05-04T22:20:01.816Z,100667.84
2023-05-04T22:22:52.099Z,100671.53
2023-05-04T22:25:41.096Z,100670.69
2023-05-04T22:28:32.759Z,100678.88
2023-05-04T22:31:21.478Z,100670.25
2023-05-04T22:34:10.338Z,100665.94
2023-05-04T22:36:58.991Z,100674.22
2023-05-04T22:39:49.013Z,100677.63
2023-05-04T22:42:37.869Z,100680.28
2023-05-04T22:45:26.622Z,100677.63
2023-05-04T22:48:16.080Z,100675.59
2023-05-04T22:51:04.843Z,100683.59
2023-05-04T22:53:53.358Z,100686.72
2023-05-04T22:56:43.324Z,100691.03
2023-05-04T22:59:32.487Z,100687.56
2023-05-04T23:02:22.532Z,100686.09
2023-05-04T23:05:13.067Z,100680.94
2023-05-04T23:08:01.731Z,100678.25
2023-05-04T23:10:51.485Z,100681.50
2023-05-04T23:13:41.692Z,100666.94
2023-05-04T23:16:30.419Z,100666.78
2023-05-04T23:19:19.205Z,100664.09
2023-05-04T23:22:07.752Z,100660.59
2023-05-04T23:24:56.382Z,100657.09
2023-05-04T23:27:46.272Z,100667.78
2023-05-04T23:30:36.287Z,100666.94
2023-05-04T23:33:25.183Z,100664.28
2023-05-04T23:36:13.755Z,100663.25
2023-05-04T23:39:02.517Z,100662.63
2023-05-04T23:41:53.304Z,100666.13
2023-05-04T23:44:41.885Z,100665.28
2023-05-04T23:47:31.839Z,100666.00
2023-05-04T23:50:20.472Z,100664.84
2023-05-04T23:53:09.065Z,100663.19
2023-05-04T23:56:03.399Z,100656.19
2023-05-04T23:58:52.753Z,100658.69
